PGRO/ROP METAR and TAF weather

Enter ICAO airport designator
Station Type Date Time Source
PGRO METAR 2021/05/11 07:50 UTC NOAA

PGRO 110750Z 09011KT 7SM SCT016 28/24 A2983 RMK LAST


Station Type Date Time Source
PGRO Decoded METAR 2021/05/11 07:50 UTC NOAA

Rota Island, N. Mariana Is, Rota International Airport, GU, United States (PGRO) 14-11N 145-15E
May 11, 2021 - 03:50 AM EDT / 2021.05.11 0750 UTC
Wind: from the E (090 degrees) at 13 MPH (11 KT):0
Visibility: 7 mile(s):0
Sky conditions: partly cloudy
Temperature: 82 F (28 C)
Dew Point: 75 F (24 C)
Relative Humidity: 78%
Pressure (altimeter): 29.83 in. Hg (1010 hPa)
ob: PGRO 110750Z 09011KT 7SM SCT016 28/24 A2983 RMK LAST
cycle: 8

Station Type Date Time Source
PGRO TAF 2021/05/11 06:36 UTC NOAA

TAF PGRO 110534Z 1106/1206 08013KT P6SM SCT015

Example: see airport list